Create Custom Reports and Graphics: Custom Report

Stanford Met Tower

Current Conditions

4/23/19 4:00 PM (-07:00)
Updated Every 15 Minutes
Temp 90.5 °F   6.7
RH 21 %   1
Dew Pt 50.4 °F   10.5
Wind Dir N | 356 °
Wind Spd 5.1 mph   4.1
Wind Gust 9.1 mph   5.4
Solar Rad 531 W/m2   10
Daily Min Temp 47.3 °F   5.0
Daily Max Temp 92.5 °F   5.0
Daily Max Wind 13.3 mph   5.5
Daily Rain 0.00 In
Min Temp Yest 42.3 °F
Max Temp Yest 87.5 °F
Max Wind Yest 18.8 mph
Rain Yest 0.00 In
Seasonal Rainfall 16.73 In

Last 48 Hours

Stanford Met Tower

Hourly Data | America/Los_Angeles
as of 4/23/19 5:08 PM PDT
Date & Time Temp (°F) Upper Temp (°F) Temp Inversion (°F) RH (%) Dew Pt (°F) Wind Dir (°) Wind Spd (mph) Wind Gust (mph) Latest Rain (In) ETo Hr (in) ETo 2pm (In) Daily Rain (In) Daily Min Temp (°F) Daily Max Temp (°F)
4/23/19 - 1600 90.6 86.7 -3.9 22 51.3 N | 0 5.2 12.7 0.00 0.019 0.21 0.00 47.3 92.5
4/23/19 - 1500 90.4 85.5 -4.9 20 48.3 NNW | 347 6.9 13.3 0.00 0.024 0.21 0.00 47.3 92.5
4/23/19 - 1400 91.8 85.6 -6.2 21 48.4 NNE | 17 5.4 12.3 0.00 0.027 0.21 0.00 47.3 92.5
4/23/19 - 1300 90.9 83.9 -6.9 24 49.4 N | 1 5.0 10.3 0.00 0.028 0.20 0.00 47.3 91.3
4/23/19 - 1200 87.2 81.4 -5.8 22 46.4 N | 11 4.6 10.4 0.00 0.027 0.20 0.00 47.3 89.3
4/23/19 - 1100 86.1 80.2 -5.8 26 49.3 NNE | 16 5.0 9.3 0.00 0.024 0.20 0.00 47.3 86.1
4/23/19 - 1000 83.2 77.0 -6.2 26 47.0 N | 359 2.8 8.1 0.00 0.020 0.20 0.00 47.3 83.6
4/23/19 - 0900 77.2 73.3 -3.9 30 50.7 NNE | 20 1.3 3.5 0.00 0.014 0.20 0.00 47.3 77.8
4/23/19 - 0800 68.5 66.4 -2.2 39 51.5 NNW | 327 1.2 3.1 0.00 0.007 0.20 0.00 47.3 68.9
4/23/19 - 0700 58.9 59.2 0.3 86 53.3 SSW | 198 3.2 5.3 0.00 0.002 0.20 0.00 47.3 59.0
4/23/19 - 0600 49.8 53.0 3.2 90 45.1 SSW | 203 4.0 6.7 0.00 0.000 0.20 0.00 47.3 52.9
4/23/19 - 0500 47.9 51.6 3.7 89 44.1 S | 186 4.4 8.7 0.00 0.000 0.20 0.00 47.3 52.9
4/23/19 - 0400 48.5 52.0 3.4 87 44.0 S | 188 2.9 6.6 0.00 0.000 0.20 0.00 47.5 52.9
4/23/19 - 0300 48.4 52.2 3.8 85 44.0 SSW | 205 4.4 8.1 0.00 0.000 0.20 0.00 48.4 52.9
4/23/19 - 0200 50.0 52.2 2.2 84 44.5 SSW | 194 3.5 6.1 0.00 0.000 0.20 0.00 49.3 52.9
4/23/19 - 0100 50.1 52.9 2.7 82 44.6 SSW | 196 3.8 7.5 0.00 0.000 0.20 0.00 49.8 52.9
4/23/19 - 0000 52.2 54.6 2.5 79 44.9 SSW | 210 3.7 7.3 0.00 0.000 0.20 0.00 42.3 87.5
4/22/19 - 2300 53.0 55.5 2.4 78 45.6 SSW | 198 2.9 5.9 0.00 0.000 0.20 0.00 42.3 87.5
4/22/19 - 2200 54.2 58.4 4.2 75 46.3 S | 183 3.0 5.5 0.00 0.000 0.20 0.00 42.3 87.5
4/22/19 - 2100 56.2 60.1 4.0 70 47.4 SSW | 205 2.1 4.8 0.00 0.000 0.20 0.00 42.3 87.5
4/22/19 - 2000 61.0 65.8 4.8 59 47.6 NNE | 18 1.8 3.3 0.00 0.000 0.20 0.00 42.3 87.5
4/22/19 - 1900 67.9 71.2 3.3 36 44.5 NW | 315 3.4 7.3 0.00 0.000 0.20 0.00 42.3 87.5
4/22/19 - 1800 78.1 77.2 -0.9 20 36.2 NW | 310 5.4 12.4 0.00 0.006 0.20 0.00 42.3 87.5
4/22/19 - 1700 81.2 78.9 -2.2 20 38.4 NW | 307 7.7 16.6 0.00 0.013 0.20 0.00 42.3 87.5
4/22/19 - 1600 84.1 80.4 -3.6 20 40.8 WNW | 301 8.8 18.8 0.00 0.019 0.20 0.00 42.3 87.5
4/22/19 - 1500 86.2 80.9 -5.3 21 43.8 NNW | 334 7.0 15.3 0.00 0.023 0.20 0.00 42.3 87.5
4/22/19 - 1400 85.2 78.8 -6.4 22 41.8 NNW | 331 7.1 16.7 0.00 0.026 0.20 0.00 42.3 86.3
4/22/19 - 1300 83.2 77.3 -5.9 23 42.2 NW | 315 7.2 14.6 0.00 0.027 0.17 0.00 42.3 84.9
4/22/19 - 1200 81.4 75.2 -6.3 26 42.9 NW | 323 7.3 13.1 0.00 0.026 0.17 0.00 42.3 82.4
4/22/19 - 1100 79.9 74.0 -5.9 29 44.5 NW | 316 6.3 14.7 0.00 0.024 0.17 0.00 42.3 80.2
4/22/19 - 1000 75.2 70.4 -4.8 34 46.7 NW | 322 5.3 11.5 0.00 0.019 0.17 0.00 42.3 75.6
4/22/19 - 0900 69.5 66.0 -3.5 42 47.8 NNW | 333 3.1 9.1 0.00 0.013 0.17 0.00 42.3 70.2
4/22/19 - 0800 61.2 60.0 -1.3 59 52.2 SW | 231 1.7 3.3 0.00 0.007 0.17 0.00 42.3 61.6
4/22/19 - 0700 53.2 53.2 -0.1 95 50.8 SSW | 207 3.4 6.3 0.00 0.001 0.17 0.00 42.3 53.4
4/22/19 - 0600 44.3 45.6 1.3 92 40.3 SSW | 200 5.0 8.0 0.00 0.000 0.17 0.00 42.3 48.8
4/22/19 - 0500 43.9 44.7 0.8 92 40.1 SSW | 202 4.6 7.0 0.00 0.000 0.17 0.00 42.5 48.8
4/22/19 - 0400 43.6 44.8 1.2 91 40.6 SSW | 200 4.4 7.6 0.00 0.000 0.17 0.00 43.6 48.8
4/22/19 - 0300 44.8 45.9 1.1 90 41.5 SSW | 200 4.6 7.1 0.00 0.000 0.17 0.00 44.4 48.8
4/22/19 - 0200 45.4 46.3 0.9 88 41.1 SSW | 202 4.4 6.9 0.00 0.000 0.17 0.00 44.6 48.8
4/22/19 - 0100 46.3 47.3 1.0 86 41.7 SSW | 198 4.3 6.9 0.00 0.000 0.17 0.00 45.6 48.8
4/22/19 - 0000 48.1 49.3 1.2 83 43.0 SSE | 162 3.5 5.9 0.00 0.000 0.17 0.00 41.3 78.2
4/21/19 - 2300 50.5 51.2 0.7 82 44.0 S | 183 4.4 8.8 0.00 0.000 0.17 0.00 41.3 78.2
4/21/19 - 2200 51.4 52.8 1.4 77 42.9 S | 183 4.6 9.8 0.00 0.000 0.17 0.00 41.3 78.2
4/21/19 - 2100 52.9 54.3 1.4 74 43.3 SSE | 166 3.7 7.2 0.00 0.000 0.17 0.00 41.3 78.2
4/21/19 - 2000 53.2 54.1 0.8 68 44.2 S | 182 3.1 7.9 0.00 0.000 0.17 0.00 41.3 78.2
4/21/19 - 1900 58.1 58.3 0.2 54 43.6 WSW | 247 4.0 9.2 0.00 0.000 0.17 0.00 41.3 78.2
4/21/19 - 1800 65.3 64.1 -1.2 44 44.6 WSW | 252 6.9 13.2 0.00 0.006 0.17 0.00 41.3 78.2
4/21/19 - 1700 72.5 68.7 -3.8 30 41.3 NW | 319 6.4 11.7 0.00 0.011 0.17 0.00 41.3 78.2
Max 91.8 86.7 4.8 95 53.3 - 8.8 18.8 0.00 0.028 0.21 0.00 49.8 92.5
Avg 64.6 63.7 -0.9 56 45.0 - 4.5 9.1 0.00 0.009 0.19 - - -
Min 43.6 44.7 -6.9 20 36.2 - 1.2 3.1 0.00 0.000 0.17 0.00 41.3 48.8
Total - - - - - - - - 0.00 0.413 - - - -
Calm: 0.0%
Calm: 0.0%